.
WxDataArchive / Data Records for 2008-10-29
2008-10-28 October 2008 2008-10-30

Data Records for Wednesday, 29 October 2008

Time	Temp	Chill	HIndex	Humid	Dewpt	 Wind 	HiWind	WindDir	Rain 	Barom 
-----	----	-----	------	-----	-----	------	------	-------	-----	----- 
00:00	34.1	34.1	34.1	66	23.9	1	2	270	0.00	30.061 
00:05	34.1	34.1	34.1	67	24.3	1	2	270	0.00	30.063 
00:10	34.0	34.0	34.0	67	24.2	1	2	270	0.00	30.063 
00:15	34.0	34.0	34.0	67	24.2	1	2	270	0.00	30.060 
00:20	34.0	34.0	34.0	67	24.2	1	3	270	0.00	30.056 
00:25	34.0	34.0	34.0	67	24.2	1	3	248	0.00	30.052 
00:30	34.0	34.0	34.0	67	24.2	1	4	248	0.00	30.047 
00:35	34.0	34.0	34.0	67	24.2	1	3	270	0.00	30.047 
00:40	34.0	34.0	34.0	67	24.2	1	3	270	0.00	30.047 
00:45	34.0	34.0	34.0	67	24.2	1	2	248	0.00	30.046 
00:50	34.0	34.0	34.0	67	24.2	1	2	248	0.00	30.046 
00:55	34.0	34.0	34.0	67	24.2	1	2	248	0.00	30.044 
01:00	33.8	33.8	33.8	68	24.4	0	2	248	0.00	30.045 
01:05	33.8	33.8	33.8	68	24.4	1	2	248	0.00	30.043 
01:10	34.0	34.0	34.0	68	24.6	1	3	248	0.00	30.043 
01:15	34.1	34.1	34.1	67	24.3	1	3	248	0.00	30.044 
01:20	34.1	34.1	34.1	67	24.3	1	3	248	0.00	30.046 
01:25	34.4	34.4	34.4	67	24.6	1	3	248	0.00	30.042 
01:30	34.6	34.6	34.6	67	24.8	1	4	248	0.00	30.033 
01:35	34.6	34.6	34.6	67	24.8	1	3	292	0.00	30.029 
01:40	34.6	34.6	34.6	66	24.4	1	3	248	0.00	30.030 
01:45	34.7	34.7	34.7	66	24.5	1	2	292	0.00	30.030 
01:50	34.9	34.9	34.9	67	25.1	1	2	248	0.00	30.028 
01:55	34.9	34.9	34.9	66	24.7	2	3	248	0.00	30.024 
02:00	35.0	35.0	35.0	66	24.8	1	3	248	0.00	30.022 
02:05	35.2	35.2	35.2	66	25.0	1	4	248	0.00	30.020 
02:10	35.2	35.2	35.2	65	24.6	1	4	248	0.00	30.015 
02:15	35.3	35.3	35.3	65	24.7	1	3	248	0.00	30.013 
02:20	35.3	35.3	35.3	65	24.7	1	3	248	0.00	30.013 
02:25	35.3	35.3	35.3	65	24.7	2	5	248	0.00	30.011 
02:30	35.3	35.3	35.3	65	24.7	1	4	248	0.00	30.012 
02:35	35.3	35.3	35.3	65	24.7	2	3	270	0.00	30.009 
02:40	35.0	35.0	35.0	66	24.8	1	5	248	0.00	30.009 
02:45	35.0	35.0	35.0	66	24.8	1	4	248	0.00	30.003 
02:50	34.9	34.9	34.9	66	24.7	1	3	248	0.00	30.002 
02:55	34.9	34.9	34.9	66	24.7	1	3	248	0.00	30.000 
03:00	34.9	34.9	34.9	66	24.7	1	3	248	0.00	30.000 
03:05	34.9	34.9	34.9	67	25.1	1	2	248	0.00	29.999 
03:10	34.9	34.9	34.9	67	25.1	1	3	225	0.00	29.997 
03:15	35.0	35.0	35.0	67	25.2	1	3	248	0.00	29.996 
03:20	35.2	35.2	35.2	67	25.4	1	3	248	0.00	29.994 
03:25	35.3	35.3	35.3	67	25.5	1	3	248	0.00	29.995 
03:30	35.3	35.3	35.3	67	25.5	1	5	270	0.00	29.991 
03:35	35.3	35.3	35.3	66	25.1	1	4	248	0.00	29.992 
03:40	35.5	35.5	35.5	66	25.3	1	3	248	0.00	29.995 
03:45	35.6	35.6	35.6	66	25.4	1	3	248	0.00	29.994 
03:50	35.6	35.6	35.6	66	25.4	1	3	248	0.00	29.992 
03:55	35.6	35.6	35.6	69	26.4	1	4	248	0.00	29.995 
04:00	35.6	35.6	35.6	66	25.4	1	3	248	0.00	29.996 
04:05	35.6	35.6	35.6	66	25.4	0	3	248	0.00	29.997 
04:10	35.5	35.5	35.5	66	25.3	1	3	248	0.00	29.997 
04:15	35.3	35.3	35.3	66	25.1	0	2	248	0.00	29.997 
04:20	35.2	35.2	35.2	66	25.0	1	3	248	0.00	29.995 
04:25	34.9	34.9	34.9	67	25.1	1	2	248	0.00	29.995 
04:30	34.7	34.7	34.7	67	24.9	1	3	248	0.00	29.996 
04:35	34.7	34.7	34.7	67	24.9	1	3	248	0.00	29.996 
04:40	34.4	34.4	34.4	68	24.9	0	2	248	0.00	29.997 
04:45	34.3	34.3	34.3	68	24.9	1	2	248	0.00	29.999 
04:50	34.1	34.1	34.1	69	25.0	1	3	248	0.00	29.999 
04:55	34.1	34.1	34.1	69	25.0	1	3	225	0.00	30.001 
05:00	34.0	34.0	34.0	69	24.9	1	3	225	0.00	30.000 
05:05	33.8	33.8	33.8	69	24.7	1	3	225	0.00	30.000 
05:10	33.7	33.7	33.7	69	24.6	1	2	248	0.00	30.001 
05:15	33.5	33.5	33.5	69	24.4	1	2	248	0.00	30.002 
05:20	33.5	33.5	33.5	70	24.8	2	3	248	0.00	30.001 
05:25	33.4	33.4	33.4	70	24.7	1	2	248	0.00	30.001 
05:30	33.4	33.4	33.4	70	24.7	1	3	248	0.00	30.002 
05:35	33.2	33.2	33.2	70	24.5	1	3	248	0.00	30.004 
05:40	33.2	33.2	33.2	70	24.5	1	3	248	0.00	30.005 
05:45	33.1	33.1	33.1	71	24.7	1	3	248	0.00	30.006 
05:50	32.9	32.9	32.9	71	24.5	1	2	248	0.00	30.007 
05:55	32.8	32.8	32.8	71	24.4	0	3	248	0.00	30.011 
06:00	32.7	32.7	32.7	72	24.7	1	3	248	0.00	30.012 
06:05	32.5	32.5	32.5	72	24.5	0	3	248	0.00	30.014 
06:10	32.5	32.5	32.5	73	24.8	0	2	248	0.00	30.015 
06:15	32.4	32.4	32.4	73	24.7	0	2	248	0.00	30.012 
06:20	32.4	32.4	32.4	73	24.7	1	3	248	0.00	30.011 
06:25	32.4	32.4	32.4	73	24.7	1	2	248	0.00	30.012 
06:30	32.4	32.4	32.4	73	24.7	1	4	270	0.00	30.014 
06:35	32.4	32.4	32.4	73	24.7	1	3	270	0.00	30.015 
06:40	32.2	32.2	32.2	73	24.5	0	1	270	0.00	30.016 
06:45	32.2	32.2	32.2	73	24.5	0	2	270	0.00	30.017 
06:50	32.2	32.2	32.2	73	24.5	1	2	270	0.00	30.017 
06:55	32.1	32.1	32.1	73	24.4	0	1	270	0.00	30.017 
07:00	31.9	31.9	31.9	74	24.6	0	2	270	0.00	30.017 
07:05	31.9	31.9	31.9	74	24.6	0	1	270	0.00	30.019 
07:10	31.9	31.9	31.9	74	24.6	0	3	270	0.00	30.019 
07:15	31.8	31.8	31.8	74	24.5	0	1	270	0.00	30.024 
07:20	31.8	31.8	31.8	74	24.5	0	2	270	0.00	30.026 
07:25	31.8	31.8	31.8	74	24.5	0	1	270	0.00	30.032 
07:30	31.8	31.8	31.8	75	24.8	0	1	270	0.00	30.034 
07:35	31.9	31.9	31.9	75	24.9	0	1	270	0.00	30.034 
07:40	31.9	31.9	31.9	75	24.9	0	1	270	0.00	30.041 
07:45	32.1	32.1	32.1	75	25.1	0	1	270	0.00	30.043 
07:50	32.4	32.4	32.4	74	25.1	0	1	270	0.00	30.047 
07:55	32.4	32.4	32.4	74	25.1	0	1	270	0.00	30.048 
08:00	32.5	32.5	32.5	74	25.2	0	2	270	0.00	30.049 
08:05	32.5	32.5	32.5	74	25.2	0	1	270	0.00	30.048 
08:10	32.7	32.7	32.7	73	25.0	0	1	270	0.00	30.048 
08:15	32.9	32.9	32.9	73	25.2	0	1	270	0.00	30.048 
08:20	33.2	33.2	33.2	73	25.5	0	1	270	0.00	30.049 
08:25	33.5	33.5	33.5	73	25.8	0	3	270	0.00	30.052 
08:30	33.8	33.8	33.8	72	25.7	1	2	270	0.00	30.054 
08:35	34.1	34.1	34.1	72	26.0	1	2	270	0.00	30.058 
08:40	34.3	34.3	34.3	71	25.9	1	2	270	0.00	30.061 
08:45	34.7	34.7	34.7	71	26.3	1	3	270	0.00	30.059 
08:50	35.2	35.2	35.2	70	26.4	0	2	270	0.00	30.058 
08:55	35.5	35.5	35.5	70	26.7	1	3	270	0.00	30.062 
09:00	35.9	35.9	35.9	69	26.7	1	2	270	0.00	30.063 
09:05	36.3	36.3	36.3	69	27.1	1	2	270	0.00	30.062 
09:10	36.8	36.8	36.8	67	26.9	1	4	315	0.00	30.063 
09:15	37.2	37.2	37.2	66	26.9	1	2	315	0.00	30.066 
09:20	37.3	37.3	37.3	66	27.0	1	2	315	0.00	30.066 
09:25	37.6	37.6	37.6	66	27.3	0	1	315	0.00	30.069 
09:30	38.0	38.0	38.0	65	27.3	0	2	315	0.00	30.072 
09:35	38.5	38.5	38.5	65	27.8	1	3	315	0.00	30.073 
09:40	38.9	38.9	38.9	63	27.4	1	3	315	0.00	30.074 
09:45	39.2	39.2	39.2	63	27.7	1	2	292	0.00	30.075 
09:50	39.8	39.8	39.8	62	27.9	1	2	248	0.00	30.073 
09:55	40.3	40.3	40.3	62	28.3	1	3	248	0.00	30.075 
10:00	40.8	40.8	40.8	60	28.0	1	3	248	0.00	30.074 
10:05	40.9	40.9	40.9	59	27.7	2	5	315	0.00	30.076 
10:10	41.5	41.5	41.5	58	27.8	1	3	292	0.00	30.076 
10:15	41.8	41.8	41.8	57	27.7	2	7	270	0.00	30.076 
10:20	41.9	41.9	41.9	56	27.4	1	4	315	0.00	30.076 
10:25	42.5	42.5	42.5	58	28.8	2	3	270	0.00	30.075 
10:30	42.6	42.6	42.6	56	28.0	1	3	338	0.00	30.075 
10:35	43.1	43.1	43.1	58	29.3	1	3	315	0.00	30.076 
10:40	43.1	43.1	43.1	56	28.5	1	4	315	0.00	30.075 
10:45	43.3	43.3	43.3	56	28.7	1	5	315	0.00	30.077 
10:50	43.6	43.6	43.6	56	29.0	1	3	315	0.00	30.077 
10:55	43.6	43.6	43.6	54	28.1	2	4	315	0.00	30.077 
11:00	43.5	43.5	43.5	55	28.4	1	4	315	0.00	30.078 
11:05	43.5	43.5	43.5	56	28.9	2	4	315	0.00	30.079 
11:10	43.5	43.5	43.5	56	28.9	1	4	315	0.00	30.076 
11:15	44.1	44.1	44.1	57	29.9	1	4	315	0.00	30.076 
11:20	44.5	44.5	44.5	56	29.8	1	4	292	0.00	30.075 
11:25	44.5	44.5	44.5	56	29.8	2	5	270	0.00	30.079 
11:30	44.8	44.8	44.8	55	29.6	1	4	270	0.00	30.078 
11:35	44.9	44.9	44.9	56	30.2	1	4	292	0.00	30.077 
11:40	44.6	44.6	44.6	55	29.4	1	4	338	0.00	30.080 
11:45	44.3	44.3	44.3	55	29.2	1	3	315	0.00	30.077 
11:50	44.5	44.5	44.5	56	29.8	1	3	315	0.00	30.077 
11:55	44.5	44.5	44.5	55	29.3	1	3	292	0.00	30.076 
12:00	44.6	44.6	44.6	54	29.0	1	4	292	0.00	30.076 
12:05	44.9	44.9	44.9	53	28.8	1	4	315	0.00	30.074 
12:10	45.4	45.4	45.4	53	29.3	1	4	315	0.00	30.075 
12:15	45.4	45.4	45.4	50	27.9	2	6	315	0.00	30.080 
12:20	45.1	45.1	45.1	51	28.1	2	6	315	0.00	30.078 
12:25	44.9	44.9	44.9	51	27.9	2	4	315	0.00	30.076 
12:30	45.2	45.2	45.2	51	28.2	2	5	315	0.00	30.080 
12:35	45.8	45.8	45.8	51	28.7	3	10	270	0.00	30.076 
12:40	46.0	46.0	46.0	50	28.4	2	4	338	0.00	30.075 
12:45	46.0	46.0	46.0	49	27.9	3	6	315	0.00	30.073 
12:50	46.4	46.4	46.4	51	29.3	2	6	315	0.00	30.072 
12:55	47.3	47.3	47.3	50	29.6	1	4	292	0.00	30.071 
13:00	47.7	47.7	47.7	51	30.5	1	5	315	0.00	30.069 
13:05	48.3	48.3	48.3	50	30.5	2	5	315	0.00	30.071 
13:10	48.6	48.6	48.6	49	30.3	1	5	315	0.00	30.068 
13:15	48.3	48.3	48.3	48	29.5	2	5	292	0.00	30.069 
13:20	48.6	48.6	48.6	50	30.8	1	3	315	0.00	30.070 
13:25	48.9	48.9	48.9	49	30.6	2	5	270	0.00	30.068 
13:30	48.3	48.3	48.3	50	30.5	2	3	270	0.00	30.067 
13:35	47.7	47.7	47.7	49	29.5	1	3	315	0.00	30.070 
13:40	47.9	47.9	47.9	50	30.2	1	2	315	0.00	30.072 
13:45	48.6	48.6	48.6	50	30.8	1	3	315	0.00	30.068 
13:50	49.1	49.1	49.1	50	31.3	1	4	315	0.00	30.067 
13:55	49.4	49.4	49.4	47	30.0	1	3	315	0.00	30.065 
14:00	49.4	49.4	49.4	47	30.0	2	4	315	0.00	30.066 
14:05	49.6	49.6	49.6	47	30.2	1	3	292	0.00	30.066 
14:10	49.1	49.1	49.1	47	29.7	1	3	292	0.00	30.068 
14:15	48.0	48.0	48.0	48	29.3	1	3	315	0.00	30.070 
14:20	47.6	47.6	47.6	47	28.4	1	4	315	0.00	30.069 
14:25	47.3	47.3	47.3	49	29.1	1	3	315	0.00	30.071 
14:30	47.0	47.0	47.0	47	27.8	1	3	315	0.00	30.071 
14:35	47.6	47.6	47.6	49	29.4	1	5	292	0.00	30.070 
14:40	47.7	47.7	47.7	47	28.5	1	3	315	0.00	30.070 
14:45	48.2	48.2	48.2	47	28.9	1	3	315	0.00	30.070 
14:50	49.1	49.1	49.1	45	28.7	1	3	315	0.00	30.075 
14:55	49.2	49.2	49.2	45	28.8	2	3	270	0.00	30.075 
15:00	49.2	49.2	49.2	45	28.8	1	6	248	0.00	30.075 
15:05	48.8	48.8	48.8	45	28.4	1	3	315	0.00	30.079 
15:10	48.6	48.6	48.6	45	28.2	1	4	315	0.00	30.082 
15:15	48.3	48.3	48.3	46	28.5	2	4	315	0.00	30.084 
15:20	48.2	48.2	48.2	47	28.9	1	4	292	0.00	30.085 
15:25	47.7	47.7	47.7	47	28.5	0	2	338	0.00	30.084 
15:30	47.7	47.7	47.7	48	29.0	1	3	338	0.00	30.085 
15:35	47.6	47.6	47.6	48	28.9	1	2	338	0.00	30.086 
15:40	47.4	47.4	47.4	48	28.7	1	3	338	0.00	30.088 
15:45	47.4	47.4	47.4	49	29.2	1	4	315	0.00	30.089 
15:50	47.7	47.7	47.7	48	29.0	1	3	292	0.00	30.088 
15:55	47.9	47.9	47.9	48	29.2	0	2	315	0.00	30.089 
16:00	48.2	48.2	48.2	49	29.9	0	3	315	0.00	30.091 
16:05	48.5	48.5	48.5	47	29.2	1	5	315	0.00	30.098 
16:10	48.5	48.5	48.5	48	29.7	1	3	315	0.00	30.100 
16:15	48.2	48.2	48.2	49	29.9	1	4	315	0.00	30.101 
16:20	47.9	47.9	47.9	49	29.7	1	5	315	0.00	30.102 
16:25	47.6	47.6	47.6	50	29.9	1	5	270	0.00	30.104 
16:30	47.4	47.4	47.4	50	29.7	1	4	338	0.00	30.107 
16:35	47.1	47.1	47.1	50	29.4	1	5	315	0.00	30.111 
16:40	47.0	47.0	47.0	49	28.8	2	5	315	0.00	30.111 
16:45	46.8	46.8	46.8	49	28.7	1	3	292	0.00	30.115 
16:50	46.4	46.4	46.4	49	28.3	1	3	315	0.00	30.116 
16:55	46.2	46.2	46.2	50	28.6	1	2	292	0.00	30.118 
17:00	46.1	46.1	46.1	51	29.0	0	4	292	0.00	30.119 
17:05	46.0	46.0	46.0	52	29.4	1	3	315	0.00	30.122 
17:10	46.0	46.0	46.0	52	29.4	0	2	315	0.00	30.125 
17:15	45.7	45.7	45.7	51	28.6	1	5	315	0.00	30.127 
17:20	45.5	45.5	45.5	51	28.4	0	1	315	0.00	30.133 
17:25	45.2	45.2	45.2	52	28.6	0	2	315	0.00	30.136 
17:30	44.9	44.9	44.9	53	28.8	0	2	315	0.00	30.138 
17:35	44.6	44.6	44.6	53	28.5	0	2	315	0.00	30.141 
17:40	44.5	44.5	44.5	54	28.9	0	1	315	0.00	30.146 
17:45	44.2	44.2	44.2	54	28.6	0	1	315	0.00	30.151 
17:50	44.1	44.1	44.1	54	28.5	0	2	315	0.00	30.151 
17:55	43.9	43.9	43.9	55	28.8	0	1	315	0.00	30.153 
18:00	43.6	43.6	43.6	56	29.0	0	1	315	0.00	30.156 
18:05	43.3	43.3	43.3	57	29.1	0	1	315	0.00	30.162 
18:10	43.2	43.2	43.2	58	29.4	0	0	---	0.00	30.168 
18:15	42.9	42.9	42.9	59	29.6	0	1	315	0.00	30.172 
18:20	42.6	42.6	42.6	60	29.7	0	1	315	0.00	30.172 
18:25	42.5	42.5	42.5	60	29.6	0	2	315	0.00	30.173 
18:30	42.5	42.5	42.5	61	30.0	0	1	315	0.00	30.171 
18:35	42.2	42.2	42.2	61	29.7	0	0	---	0.00	30.173 
18:40	41.9	41.9	41.9	62	29.8	0	1	315	0.00	30.173 
18:45	41.9	41.9	41.9	62	29.8	0	1	315	0.00	30.178 
18:50	41.9	41.9	41.9	62	29.8	0	2	315	0.00	30.180 
18:55	41.8	41.8	41.8	63	30.1	0	1	315	0.00	30.184 
19:00	41.5	41.5	41.5	63	29.9	0	0	---	0.00	30.186 
19:05	41.2	41.2	41.2	64	30.0	0	1	315	0.00	30.188 
19:10	41.1	41.1	41.1	65	30.2	0	1	315	0.00	30.193 
19:15	40.8	40.8	40.8	65	30.0	0	1	315	0.00	30.198 
19:20	40.6	40.6	40.6	65	29.8	0	1	315	0.00	30.200 
19:25	40.5	40.5	40.5	66	30.0	0	1	315	0.00	30.201 
19:30	40.5	40.5	40.5	66	30.0	0	1	315	0.00	30.206 
19:35	40.5	40.5	40.5	66	30.0	0	1	315	0.00	30.208 
19:40	40.3	40.3	40.3	67	30.2	0	0	---	0.00	30.210 
19:45	40.1	40.1	40.1	67	30.0	0	0	---	0.00	30.209 
19:50	39.8	39.8	39.8	68	30.1	0	0	---	0.00	30.209 
19:55	39.5	39.5	39.5	69	30.2	0	0	---	0.00	30.211 
20:00	39.2	39.2	39.2	69	29.9	0	0	---	0.00	30.215 
20:05	38.9	38.9	38.9	70	30.0	0	0	---	0.00	30.217 
20:10	38.5	38.5	38.5	71	29.9	0	0	---	0.00	30.216 
20:15	38.2	38.2	38.2	72	30.0	0	0	---	0.00	30.217 
20:20	37.8	37.8	37.8	73	29.9	0	0	---	0.00	30.217 
20:25	37.5	37.5	37.5	73	29.6	0	0	---	0.00	30.218 
20:30	37.5	37.5	37.5	73	29.6	0	0	---	0.00	30.218 
20:35	37.5	37.5	37.5	74	30.0	0	0	---	0.00	30.218 
20:40	37.3	37.3	37.3	74	29.8	0	0	---	0.00	30.220 
20:45	37.2	37.2	37.2	74	29.7	0	0	---	0.00	30.224 
20:50	37.0	37.0	37.0	75	29.8	0	0	---	0.00	30.225 
20:55	37.0	37.0	37.0	75	29.8	0	0	---	0.00	30.232 
21:00	37.0	37.0	37.0	75	29.8	0	1	315	0.00	30.233 
21:05	37.0	37.0	37.0	75	29.8	0	0	---	0.00	30.229 
21:10	36.8	36.8	36.8	75	29.6	0	0	---	0.00	30.229 
21:15	36.6	36.6	36.6	76	29.8	0	0	---	0.00	30.230 
21:20	36.3	36.3	36.3	76	29.5	0	0	---	0.00	30.233 
21:25	36.0	36.0	36.0	76	29.2	0	0	---	0.00	30.238 
21:30	35.6	35.6	35.6	77	29.1	0	0	---	0.00	30.240 
21:35	35.3	35.3	35.3	78	29.1	0	0	---	0.00	30.242 
21:40	35.0	35.0	35.0	78	28.8	0	0	---	0.00	30.243 
21:45	34.9	34.9	34.9	78	28.7	0	0	---	0.00	30.247 
21:50	34.4	34.4	34.4	79	28.6	0	0	---	0.00	30.245 
21:55	34.1	34.1	34.1	80	28.6	0	0	---	0.00	30.248 
22:00	33.7	33.7	33.7	80	28.2	0	0	---	0.00	30.249 
22:05	33.5	33.5	33.5	81	28.3	0	0	---	0.00	30.246 
22:10	33.2	33.2	33.2	82	28.3	0	0	---	0.00	30.248 
22:15	32.9	32.9	32.9	82	28.0	0	0	---	0.00	30.248 
22:20	32.8	32.8	32.8	83	28.2	0	0	---	0.00	30.248 
22:25	32.5	32.5	32.5	83	27.9	0	0	---	0.00	30.248 
22:30	32.4	32.4	32.4	84	28.1	0	0	---	0.00	30.247 
22:35	32.2	32.2	32.2	84	27.9	0	0	---	0.00	30.248 
22:40	31.9	31.9	31.9	84	27.6	0	0	---	0.00	30.247 
22:45	31.8	31.8	31.8	84	27.5	0	0	---	0.00	30.246 
22:50	31.6	31.6	31.6	85	27.6	0	0	---	0.00	30.247 
22:55	31.3	31.3	31.3	85	27.3	0	0	---	0.00	30.249 
23:00	31.2	31.2	31.2	85	27.2	0	0	---	0.00	30.253 
23:05	30.9	30.9	30.9	86	27.2	0	0	---	0.00	30.253 
23:10	30.7	30.7	30.7	86	27.0	0	0	---	0.00	30.257 
23:15	30.4	30.4	30.4	86	26.7	0	0	---	0.00	30.257 
23:20	30.3	30.3	30.3	87	26.9	0	0	---	0.00	30.261 
23:25	30.1	30.1	30.1	87	26.7	0	0	---	0.00	30.262 
23:30	29.8	29.8	29.8	87	26.4	0	0	---	0.00	30.256 
23:35	29.7	29.7	29.7	88	26.6	0	0	---	0.00	30.259 
23:40	29.5	29.5	29.5	88	26.4	0	0	---	0.00	30.259 
23:45	29.4	29.4	29.4	88	26.3	0	0	---	0.00	30.260 
23:50	29.3	29.3	29.3	89	26.5	0	0	---	0.00	30.262 
23:55	29.1	29.1	29.1	89	26.3	0	0	---	0.00	30.263 

CoCoRaHS
IN-AL-39
A2 Web Hosting
Creative Commons License
GoDaddy
Look for:

loaded 2017-12-13 10:14:50 • last modified 2010-11-18 10:43:29
Privacy PolicyDisclaimer
• wx.awcolley.com is powered by PmWiki v.2002016 •
• all content (unless otherwise noted) © 2017 A W Colley